Hovedside
METAR-TAF:

METAR-TAF

Lufthavner :

Arvidsjaur lufthavn

Arvidsjaur, Sverige

breddegrad: 65-35-25N, lengdegrad: 019-16-55E, høyde over havet: 379 m

Gjeldene værobservasjon

Denne rapporten ble laget for 31 minutter siden, klokken 09:20 UTC
Flau vind
Temperatur -25°C
Luftfuktighet 76%
Trykk 1029 hPa
Sikt 10 km eller mer
ingen skyer under 1500 m og ingen bygeskyer

METAR: ESNX 130920Z 00000KT CAVOK M25/M28 Q1029

Tid: 10:51 (09:51 UTC)

Varsel

Denne rapporten ble laget for 1 time og 21 minutter siden, klokken 08:30 UTC
Varsel gyldig fra 13. klokken 09 UTC til 13. klokken 18 UTC
Vind 2 kt fra skiftende retning
Sikt 10 km eller mer
ingen skyer under 1500 m og ingen bygeskyer

TAF: ESNX 130830Z 1309/1318 VRB02KT CAVOK

Værobservasjoner og værvarsel for over 4000 flyplasser (METAR- og TAF-rapporter).

Tilgjengelige stasjoner er representert av de røde og gule prikkene på kartet.

Hold musepekeren over prikken for å se navnet på stasjonen.

Klikk så for å se værobservasjoner og -varsler.

For å forandre kartet kan du klikke på den grønne knappen med svart kryss for å zoome inn, på den grønne knappen med strek for å zoome ut, eller på de grønne pilene for å se tilstøtende kart.


METAR-TAF: